ETM weather

Ramon Airport
Eilat, Southern District, Israel

Public forecast

Using degrees Celsius for public forecast. Weather courtesy of forecast.io.

METAR (pilot weather report)

Closest report is Aqaba King Hussein International Airport, 6.7 nm (12.5 km) S. Retrieved 2019/09/21 07:00 UTC (47 minutes ago):

OJAQ 210700Z 36016KT 7000 NS 28/19 Q1011 NOSIG

TAF (pilot weather forecast)

Retrieved 2019/09/21 06:00 UTC (2 hours ago):

TAF LLER 210501Z 2106/2206 01017KT CAVOK PROB40 2110/2119 01020G30KT BECMG 2119/2121 35010KT TX35/2113Z TN23/2203Z